Flight Track Log - Related Links

Times and Time Zones

All times are in EDT time to prevent confusion due to time zone crossing. See the SKW6324 flight status page for this flight to view local times or setup timezone preferences in your user account.

Time Position Orientation Groundspeed Altitude Reporting Facility
EDT Latitude Longitude Course Direction KTS MPH feet Rate Location/Type
Wed 10:00:14 PM 39.9500 -104.7000 323° Northwest 219 252 8,400  Level Denver TRACON
Wed 10:01:00 PM 40.0092 -104.3667 North  Level FlightAware Approximate
Wed 10:01:09 PM 40.0167 -104.7242 344° North 257 296 10,100  Level Denver Center
Wed 10:02:00 PM 40.1018 -104.4185 323° Northwest  Level FlightAware Approximate
Wed 10:02:23 PM 40.0978 -104.7550 344° North 297 342 12,400  Level Denver Center
Wed 10:03:00 PM 40.1861 -104.5028 323° Northwest  Level FlightAware Approximate
Wed 10:03:25 PM 40.2014 -104.8050 340° North 324 373 16,000  Level Denver Center
Wed 10:04:00 PM 40.2748 -104.5790 328° Northwest  Level FlightAware Approximate
Wed 10:04:27 PM 40.2919 -104.8483 340° North 327 376 19,100  Level Denver Center
Wed 10:05:00 PM 40.3537 -104.6703 323° Northwest  Level FlightAware Approximate
Wed 10:05:28 PM 40.3806 -104.8892 341° North 323 372 21,500  Level Denver Center
Wed 10:06:30 PM 40.4700 -104.9281 342° North 333 383 23,500 1,742 Climbing Denver Center
Wed 10:07:32 PM 40.5625 -104.9697 341° North 347 399 25,100 1,366 Climbing Denver Center
Wed 10:08:33 PM 40.6594 -105.0158 340° North 367 422 26,300 1,463 Climbing Denver Center
Wed 10:09:35 PM 40.7603 -105.0647 340° North 384 442 28,100 1,742 Climbing Denver Center
Wed 10:10:37 PM 40.8408 -105.1544 320° Northwest 380 437 29,900 919 Climbing Denver Center
Wed 10:11:39 PM 40.9411 -105.2647 320° Northwest 390 449 30,000 49 Climbing Denver Center
Wed 10:12:40 PM 41.0203 -105.3550 319° Northwest 382 440 30,000  Level Denver Center
Wed 10:13:42 PM 41.0964 -105.4411 320° Northwest 366 421 30,000  Level Denver Center
Wed 10:14:44 PM 41.1708 -105.5264 319° Northwest 365 420 30,000  Level Denver Center
Wed 10:15:45 PM 41.2358 -105.6025 319° Northwest 381 438 30,000  Level Denver Center
Wed 10:16:47 PM 41.3375 -105.7219 319° Northwest 383 441 30,000  Level Denver Center
Wed 10:17:49 PM 41.4100 -105.8444 308° West 378 435 30,000  Level Denver Center
Wed 10:18:50 PM 41.4711 -105.9500 308° West 378 435 30,000  Level Denver Center
Wed 10:19:52 PM 41.5339 -106.0586 308° West 380 437 30,000  Level Denver Center
Wed 10:20:54 PM 41.6081 -106.1869 308° West 389 448 30,000  Level Denver Center
Wed 10:21:55 PM 41.6700 -106.2944 308° West 388 447 30,000  Level Denver Center
Wed 10:22:57 PM 41.7403 -106.4172 308° West 379 436 30,000  Level Denver Center
Wed 10:23:59 PM 41.7983 -106.5200 307° West 372 428 30,000  Level Denver Center
Wed 10:25:00 PM 41.8661 -106.6383 308° West 363 418 30,000  Level Denver Center
Wed 10:26:02 PM 41.9231 -106.7392 307° West 360 414 30,000  Level Denver Center
Wed 10:27:03 PM 41.9811 -106.8433 307° West 361 415 30,000  Level Denver Center
Wed 10:28:05 PM 42.0508 -106.9664 307° West 366 421 30,000  Level Denver Center
Wed 10:29:06 PM 42.1083 -107.0719 306° West 367 422 30,000  Level Denver Center
Wed 10:30:08 PM 42.1803 -107.2011 307° West 382 440 30,000  Level Denver Center
Wed 10:31:09 PM 42.2414 -107.3114 307° West 383 441 30,000  Level Denver Center
Wed 10:31:48 PM 42.2808 -107.3844 306° West 381 438 30,000  Level Salt Lake Center
Wed 10:32:49 PM 42.3494 -107.5103 306° West 374 430 30,000  Level Salt Lake Center
Wed 10:33:51 PM 42.4086 -107.6200 306° West 374 430 30,000  Level Salt Lake Center
Wed 10:34:52 PM 42.4692 -107.7286 307° West 375 432 30,000  Level Salt Lake Center
Wed 10:35:54 PM 42.5378 -107.8528 307° West 371 427 30,000  Level Salt Lake Center
Wed 10:36:56 PM 42.5942 -107.9597 306° West 371 427 30,000  Level Salt Lake Center
Wed 10:37:57 PM 42.6608 -108.0850 306° West 369 425 30,000  Level Salt Lake Center
Wed 10:38:59 PM 42.7200 -108.1958 306° West 376 433 30,000  Level Salt Lake Center
Wed 10:40:01 PM 42.7906 -108.3261 306° West 380 437 30,000  Level Salt Lake Center
Wed 10:41:02 PM 42.8494 -108.4375 306° West 382 440 30,000  Level Salt Lake Center
Wed 10:42:04 PM 42.9183 -108.5656 306° West 379 436 30,000  Level Salt Lake Center
Wed 10:43:05 PM 42.9686 -108.6631 305° West 369 425 30,000  Level Salt Lake Center
Wed 10:44:07 PM 43.0275 -108.7753 306° West 366 421 30,000  Level Salt Lake Center
Wed 10:45:09 PM 43.1014 -108.9161 306° West 379 436 30,000  Level Salt Lake Center
Wed 10:46:10 PM 43.1625 -109.0322 306° West 379 436 30,000  Level Salt Lake Center
Wed 10:47:12 PM 43.2192 -109.1417 305° West 358 412 30,000 -585 Level Salt Lake Center
Wed 10:48:13 PM 43.2683 -109.2347 306° West 309 356 28,800 -1,463 Descending Salt Lake Center
Wed 10:49:15 PM 43.3144 -109.3244 305° West 295 339 27,000 -1,645 Descending Salt Lake Center
Wed 10:50:17 PM 43.3603 -109.4142 305° West 292 336 25,400 -1,122 Descending Salt Lake Center
Wed 10:51:18 PM 43.4058 -109.5047 305° West 289 333 24,700 -683 Descending Salt Lake Center
Wed 10:52:20 PM 43.4519 -109.5931 306° West 288 331 24,000 -732 Descending Salt Lake Center
Wed 10:53:21 PM 43.5069 -109.7014 305° West 287 330 23,200 -829 Descending Salt Lake Center
Wed 10:54:23 PM 43.5517 -109.7878 306° West 285 328 22,300 -1,268 Descending Salt Lake Center
Wed 10:55:24 PM 43.5944 -109.8722 305° West 284 327 20,600 -1,659 Descending Salt Lake Center
Wed 10:56:26 PM 43.6347 -109.9506 305° West 270 311 18,900 -1,742 Descending Salt Lake Center
Wed 10:57:28 PM 43.6856 -110.0500 305° West 267 307 17,000 -1,659 Descending Salt Lake Center
Wed 10:58:29 PM 43.7278 -110.1342 305° West 267 307 15,500 -1,268 Descending Salt Lake Center
Wed 10:59:31 PM 43.7689 -110.2172 304° West 267 307 14,400 -780 Descending Salt Lake Center
Wed 11:00:32 PM 43.8078 -110.2925 306° West 247 284 13,900 -585 Descending Salt Lake Center
Wed 11:01:34 PM 43.8247 -110.3792 285° West 237 273 13,200 -829 Descending Salt Lake Center
Wed 11:02:35 PM 43.8200 -110.4547 265° West 228 262 12,200 -1,024 Descending Salt Lake Center
Wed 11:03:37 PM 43.8139 -110.5331 264° West 213 245 11,100 -1,024 Descending Salt Lake Center
Wed 11:04:38 PM 43.7894 -110.6031 244° Southwest 206 237 10,100 -1,073 Descending Salt Lake Center
Wed 11:05:40 PM 43.7458 -110.6614 224° Southwest 197 227 8,900 -1,073 Descending Salt Lake Center
Wed 11:06:41 PM 43.7028 -110.6914 207° Southwest 189 217 7,900 -689 Descending Salt Lake Center
Wed 11:07:42 PM 43.6664 -110.7086 199° South 161 185 7,500 -537 Descending Salt Lake Center
Wed 11:08:44 PM 43.6339 -110.7250 200° South 140 161 6,800 -537 Descending Salt Lake Center
Wed 11:09:45 PM 43.6044 -110.7386 199° South 134 154 6,400 -393 Descending Salt Lake Center

Login

Don't have an account? Register now (free) for customized features, flight alerts, and more!